Time;durP1;ratioP1;P1;durP2;ratioP2;P2;SDS_P1;SDS_P2;PMS_P1;PMS_P2;Temp;Humidity;BMP_temperature;BMP_pressure;BME280_temperature;BME280_humidity;BME280_pressure;Samples;Min_cycle;Max_cycle;Signal;HPM_P1;HPM_P2
2023/03/31 00:02:21;;;;;;;;;;;9.60;99.90;;;;;;5094238;28;1914;-71
2023/03/31 00:04:51;;;;;;;;;;;9.50;99.90;;;;;;5112579;28;1103;-72
2023/03/31 00:07:20;;;;;;;;;;;9.50;99.90;;;;;;5112047;28;1652;-72
2023/03/31 00:09:47;;;;;;;;;;;9.50;99.90;;;;;;5112874;28;1089;-72
2023/03/31 00:12:14;;;;;;;;;;;9.50;99.90;;;;;;5111501;28;1286;-72
2023/03/31 00:14:40;;;;;;;;;;;9.50;99.90;;;;;;5112370;28;1152;-72
2023/03/31 00:17:06;;;;;;;;;;;9.40;99.90;;;;;;5112922;28;1144;-72
2023/03/31 00:19:32;;;;;;;;;;;9.40;99.90;;;;;;5109576;28;1159;-72
2023/03/31 00:22:01;;;;;;;;;;;9.40;99.90;;;;;;5102846;28;1969;-72
2023/03/31 00:24:31;;;;;;;;;;;9.40;99.90;;;;;;5128634;27;2101;-72
2023/03/31 00:26:58;;;;;;;;;;;9.40;99.90;;;;;;5093542;28;1252;-72
2023/03/31 00:29:23;;;;;;;;;;;9.40;99.90;;;;;;5099040;28;1123;-72
2023/03/31 00:31:50;;;;;;;;;;;9.30;99.90;;;;;;5077638;28;1186;-72
2023/03/31 00:34:15;;;;;;;;;;;9.30;99.90;;;;;;5111324;28;1167;-72
2023/03/31 00:36:46;;;;;;;;;;;9.30;99.90;;;;;;5112359;28;1093;-72
2023/03/31 00:39:13;;;;;;;;;;;9.20;99.90;;;;;;5127351;27;1115;-72
2023/03/31 00:41:39;;;;;;;;;;;9.20;99.90;;;;;;5111402;28;1902;-72
2023/03/31 00:44:05;;;;;;;;;;;9.20;99.90;;;;;;5112356;28;1382;-73
2023/03/31 00:46:33;;;;;;;;;;;9.20;99.90;;;;;;5096278;28;1148;-73
2023/03/31 00:49:00;;;;;;;;;;;9.20;99.90;;;;;;5131646;27;1174;-73
2023/03/31 00:51:27;;;;;;;;;;;9.30;99.90;;;;;;5132915;27;1052;-72
2023/03/31 00:53:58;;;;;;;;;;;9.30;99.90;;;;;;5132935;27;1076;-72
2023/03/31 00:56:25;;;;;;;;;;;9.30;99.90;;;;;;5132217;27;1216;-72
2023/03/31 00:58:52;;;;;;;;;;;9.40;99.90;;;;;;5112138;28;1163;-72
2023/03/31 01:01:20;;;;;;;;;;;9.30;99.90;;;;;;5093695;28;1918;-72
2023/03/31 01:03:46;;;;;;;;;;;9.30;99.90;;;;;;5090463;28;1273;-73
2023/03/31 01:06:13;;;;;;;;;;;9.40;99.90;;;;;;5123280;27;1330;-72
2023/03/31 01:08:40;;;;;;;;;;;9.30;99.90;;;;;;5111909;28;1151;-72
2023/03/31 01:11:08;;;;;;;;;;;9.40;99.90;;;;;;5111052;28;1069;-72
2023/03/31 01:13:35;;;;;;;;;;;9.30;99.90;;;;;;5111244;28;1285;-72
2023/03/31 01:16:01;;;;;;;;;;;9.30;99.90;;;;;;5093227;28;1101;-72
2023/03/31 01:18:28;;;;;;;;;;;9.30;99.90;;;;;;5110647;28;1093;-72
2023/03/31 01:21:13;;;;;;;;;;;9.30;99.90;;;;;;5111525;28;1983;-72
2023/03/31 01:23:48;;;;;;;;;;;9.30;99.90;;;;;;5101773;28;1152;-72
2023/03/31 01:26:32;;;;;;;;;;;9.30;99.90;;;;;;5111071;28;1292;-73
2023/03/31 01:29:11;;;;;;;;;;;9.30;99.90;;;;;;5127212;27;1162;-72
2023/03/31 01:31:55;;;;;;;;;;;9.30;99.90;;;;;;5110043;28;1200;-72
2023/03/31 01:34:22;;;;;;;;;;;9.30;99.90;;;;;;5109842;28;1084;-72
2023/03/31 01:36:49;;;;;;;;;;;9.30;99.90;;;;;;5092644;28;1081;-73
2023/03/31 01:39:30;;;;;;;;;;;9.30;99.90;;;;;;5091254;28;1133;-73
2023/03/31 01:42:00;;;;;;;;;;;9.30;99.90;;;;;;5111077;28;1905;-72
2023/03/31 01:44:39;;;;;;;;;;;9.30;99.90;;;;;;5091654;28;1589;-72
2023/03/31 01:47:16;;;;;;;;;;;9.30;99.90;;;;;;5092240;28;1192;-72
2023/03/31 01:49:46;;;;;;;;;;;9.30;99.90;;;;;;5110474;28;1135;-72
2023/03/31 01:52:18;;;;;;;;;;;9.30;99.90;;;;;;5091894;28;1259;-72
2023/03/31 01:54:49;;;;;;;;;;;9.20;99.90;;;;;;5110552;28;1092;-72
2023/03/31 01:57:22;;;;;;;;;;;9.20;99.90;;;;;;5092138;28;1120;-72
2023/03/31 01:59:53;;;;;;;;;;;9.30;99.90;;;;;;5110416;28;1147;-72
2023/03/31 02:02:26;;;;;;;;;;;9.20;99.90;;;;;;5092102;28;1964;-72
2023/03/31 02:04:55;;;;;;;;;;;9.20;99.90;;;;;;5110171;28;1108;-72
2023/03/31 02:07:30;;;;;;;;;;;9.20;99.90;;;;;;5092570;28;1691;-72
2023/03/31 02:09:57;;;;;;;;;;;9.20;99.90;;;;;;5101988;28;1223;-72
2023/03/31 02:12:25;;;;;;;;;;;9.30;99.90;;;;;;5098086;28;1310;-72
2023/03/31 02:14:52;;;;;;;;;;;9.20;99.90;;;;;;5098617;28;1053;-72
2023/03/31 02:17:20;;;;;;;;;;;9.20;99.90;;;;;;5101943;28;1254;-72
2023/03/31 02:19:47;;;;;;;;;;;9.20;99.90;;;;;;5079732;28;1203;-72
2023/03/31 02:22:15;;;;;;;;;;;9.20;99.90;;;;;;5133930;27;1926;-72
2023/03/31 02:24:42;;;;;;;;;;;9.10;99.90;;;;;;5082646;28;1274;-72
2023/03/31 02:27:11;;;;;;;;;;;9.20;99.90;;;;;;5099821;28;1346;-72
2023/03/31 02:29:37;;;;;;;;;;;9.20;99.90;;;;;;5134421;27;1251;-72
2023/03/31 02:32:09;;;;;;;;;;;9.20;99.90;;;;;;5091364;28;1204;-72
2023/03/31 02:34:35;;;;;;;;;;;9.20;99.90;;;;;;5074173;28;1017;-72
2023/03/31 02:37:01;;;;;;;;;;;9.30;99.90;;;;;;5091553;28;1104;-72
2023/03/31 02:39:29;;;;;;;;;;;9.30;99.90;;;;;;5091303;28;1136;-72
2023/03/31 02:41:56;;;;;;;;;;;9.30;99.90;;;;;;5109344;28;1933;-72
2023/03/31 02:44:22;;;;;;;;;;;9.40;99.90;;;;;;5109909;28;1639;-72
2023/03/31 02:46:49;;;;;;;;;;;9.40;99.90;;;;;;5109659;28;1089;-72
2023/03/31 02:49:15;;;;;;;;;;;9.40;99.90;;;;;;5091370;28;1207;-72
2023/03/31 02:51:47;;;;;;;;;;;9.40;99.90;;;;;;5109508;28;1146;-72
2023/03/31 02:54:31;;;;;;;;;;;9.40;99.90;;;;;;5074463;28;1102;-72
2023/03/31 02:57:09;;;;;;;;;;;9.40;99.90;;;;;;5091419;28;1188;-72
2023/03/31 02:59:56;;;;;;;;;;;9.40;99.90;;;;;;5090681;28;1167;-72
2023/03/31 03:02:25;;;;;;;;;;;9.40;99.90;;;;;;5096109;28;1909;-72
2023/03/31 03:05:00;;;;;;;;;;;9.50;99.90;;;;;;5091231;28;1077;-72
2023/03/31 03:07:28;;;;;;;;;;;9.40;99.90;;;;;;5090455;28;1662;-72
2023/03/31 03:09:58;;;;;;;;;;;9.40;99.90;;;;;;5106504;28;1113;-72
2023/03/31 03:12:26;;;;;;;;;;;9.50;99.90;;;;;;5091517;28;1325;-72
2023/03/31 03:15:01;;;;;;;;;;;9.50;99.90;;;;;;5074154;28;1109;-72
2023/03/31 03:17:31;;;;;;;;;;;9.50;99.90;;;;;;5090292;28;1073;-72
2023/03/31 03:19:59;;;;;;;;;;;9.50;99.90;;;;;;5112534;28;1079;-72
2023/03/31 03:22:24;;;;;;;;;;;9.50;99.90;;;;;;5124970;28;1922;-72
2023/03/31 03:24:51;;;;;;;;;;;9.50;99.90;;;;;;5108909;28;1113;-72
2023/03/31 03:27:17;;;;;;;;;;;9.50;99.90;;;;;;5095434;28;1257;-72
2023/03/31 03:29:42;;;;;;;;;;;9.50;99.90;;;;;;5129943;28;1084;-72
2023/03/31 03:32:09;;;;;;;;;;;9.60;99.90;;;;;;5129116;28;1119;-72
2023/03/31 03:34:35;;;;;;;;;;;9.60;99.90;;;;;;5114169;28;1129;-72
2023/03/31 03:37:01;;;;;;;;;;;9.60;99.90;;;;;;5108660;28;1116;-72
2023/03/31 03:39:26;;;;;;;;;;;9.60;99.90;;;;;;5109218;28;1111;-72
2023/03/31 03:41:52;;;;;;;;;;;9.50;99.90;;;;;;5109274;28;1975;-72
2023/03/31 03:44:18;;;;;;;;;;;9.50;99.90;;;;;;5108329;28;1556;-72
2023/03/31 03:46:43;;;;;;;;;;;9.50;99.90;;;;;;5108977;28;1139;-73
2023/03/31 03:49:09;;;;;;;;;;;9.50;99.90;;;;;;5109525;28;1168;-72
2023/03/31 03:51:35;;;;;;;;;;;9.50;99.90;;;;;;5108663;28;1124;-72
2023/03/31 03:54:00;;;;;;;;;;;9.50;99.90;;;;;;5137347;27;1409;-72
2023/03/31 03:56:26;;;;;;;;;;;9.50;99.90;;;;;;5109232;28;1085;-72
2023/03/31 03:58:52;;;;;;;;;;;9.40;99.90;;;;;;5108428;28;1084;-72
2023/03/31 04:01:18;;;;;;;;;;;9.40;99.90;;;;;;5101425;28;1983;-72
2023/03/31 04:03:43;;;;;;;;;;;9.40;99.90;;;;;;5108781;28;1257;-72
2023/03/31 04:06:09;;;;;;;;;;;9.40;99.90;;;;;;5090154;28;1177;-72
2023/03/31 04:08:35;;;;;;;;;;;9.40;99.90;;;;;;5110431;28;1120;-72
2023/03/31 04:11:01;;;;;;;;;;;9.40;99.90;;;;;;5112204;28;1126;-72
2023/03/31 04:13:27;;;;;;;;;;;9.40;99.90;;;;;;5112147;28;1341;-72
2023/03/31 04:15:53;;;;;;;;;;;9.40;99.90;;;;;;5101898;28;1258;-72
2023/03/31 04:18:24;;;;;;;;;;;9.40;99.90;;;;;;5093709;28;1183;-72
2023/03/31 04:21:03;;;;;;;;;;;9.40;99.90;;;;;;5112014;28;1910;-72
2023/03/31 04:23:30;;;;;;;;;;;9.40;99.90;;;;;;5094289;28;1085;-72
2023/03/31 04:25:56;;;;;;;;;;;9.40;99.90;;;;;;5128026;27;1276;-72
2023/03/31 04:28:22;;;;;;;;;;;9.40;99.90;;;;;;5129294;27;1192;-72
2023/03/31 04:30:48;;;;;;;;;;;9.40;99.90;;;;;;5112227;28;1108;-72
2023/03/31 04:33:16;;;;;;;;;;;9.50;99.90;;;;;;5112132;28;1171;-72
2023/03/31 04:35:51;;;;;;;;;;;9.50;99.90;;;;;;5112328;28;1120;-72
2023/03/31 04:38:19;;;;;;;;;;;9.50;99.90;;;;;;5103273;28;1093;-72
2023/03/31 04:40:45;;;;;;;;;;;9.50;99.90;;;;;;5111628;28;2252;-72
2023/03/31 04:43:11;;;;;;;;;;;9.50;99.90;;;;;;5112432;28;1358;-72
2023/03/31 04:45:36;;;;;;;;;;;9.50;99.90;;;;;;5110981;28;1163;-72
2023/03/31 04:48:02;;;;;;;;;;;9.50;99.90;;;;;;5112091;28;1104;-72
2023/03/31 04:50:28;;;;;;;;;;;9.50;99.90;;;;;;5112454;28;1100;-72
2023/03/31 04:52:54;;;;;;;;;;;9.50;99.90;;;;;;5093788;28;1159;-72
2023/03/31 04:55:20;;;;;;;;;;;9.50;99.90;;;;;;5082534;28;1005;-72
2023/03/31 04:57:46;;;;;;;;;;;9.50;99.90;;;;;;5111981;28;1138;-72
2023/03/31 05:00:12;;;;;;;;;;;9.40;99.90;;;;;;5111218;28;1145;-72
2023/03/31 05:02:37;;;;;;;;;;;9.40;99.90;;;;;;5110823;28;1909;-72
2023/03/31 05:05:03;;;;;;;;;;;9.40;99.90;;;;;;5093421;28;1081;-72
2023/03/31 05:07:29;;;;;;;;;;;9.30;99.90;;;;;;5093074;28;1794;-71
2023/03/31 05:09:54;;;;;;;;;;;9.30;99.90;;;;;;5092823;28;1081;-72
2023/03/31 05:12:20;;;;;;;;;;;9.30;99.90;;;;;;5110888;28;1232;-72
2023/03/31 05:14:46;;;;;;;;;;;9.30;99.90;;;;;;5111270;28;1069;-72
2023/03/31 05:17:11;;;;;;;;;;;9.30;99.90;;;;;;5111236;28;1117;-72
2023/03/31 05:19:37;;;;;;;;;;;9.30;99.90;;;;;;5091872;28;1220;-72
2023/03/31 05:22:03;;;;;;;;;;;9.30;99.90;;;;;;5110304;28;2325;-72
2023/03/31 05:24:28;;;;;;;;;;;9.30;99.90;;;;;;5111048;28;1116;-72
2023/03/31 05:26:56;;;;;;;;;;;9.30;99.90;;;;;;5111495;28;1092;-72
2023/03/31 05:29:22;;;;;;;;;;;9.20;99.90;;;;;;5125341;27;1127;-72
2023/03/31 05:31:48;;;;;;;;;;;9.30;99.90;;;;;;5110734;28;1093;-72
2023/03/31 05:34:14;;;;;;;;;;;9.30;99.90;;;;;;5092851;28;1254;-72
2023/03/31 05:36:42;;;;;;;;;;;9.30;99.90;;;;;;5088355;28;1119;-72
2023/03/31 05:39:08;;;;;;;;;;;9.30;99.90;;;;;;5130966;27;1135;-72
2023/03/31 05:41:34;;;;;;;;;;;9.30;99.90;;;;;;5113214;27;2039;-72
2023/03/31 05:44:00;;;;;;;;;;;9.30;99.90;;;;;;5109683;28;1323;-70
2023/03/31 05:46:26;;;;;;;;;;;9.30;99.90;;;;;;5137055;27;1328;-69
2023/03/31 05:48:52;;;;;;;;;;;9.30;99.90;;;;;;5110559;28;1163;-70
2023/03/31 05:51:18;;;;;;;;;;;9.30;99.90;;;;;;5110503;28;1100;-69
2023/03/31 05:53:45;;;;;;;;;;;9.30;99.90;;;;;;5092565;28;1116;-70
2023/03/31 05:56:11;;;;;;;;;;;9.40;99.90;;;;;;5109898;28;1092;-69
2023/03/31 05:58:37;;;;;;;;;;;9.40;99.90;;;;;;5098015;28;1263;-69
2023/03/31 06:01:05;;;;;;;;;;;9.40;99.90;;;;;;5113409;27;1967;-69
2023/03/31 06:03:32;;;;;;;;;;;9.40;99.90;;;;;;5129427;27;1107;-69
2023/03/31 06:05:58;;;;;;;;;;;9.40;99.90;;;;;;5109459;28;1294;-69
2023/03/31 06:08:24;;;;;;;;;;;9.40;99.90;;;;;;5110934;27;1069;-70
2023/03/31 06:10:50;;;;;;;;;;;9.40;99.90;;;;;;5110115;28;1175;-69
2023/03/31 06:13:15;;;;;;;;;;;9.40;99.90;;;;;;5111909;27;1278;-70
2023/03/31 06:15:41;;;;;;;;;;;9.40;99.90;;;;;;5110542;28;1136;-70
2023/03/31 06:18:09;;;;;;;;;;;9.40;99.90;;;;;;5110111;28;1171;-70
2023/03/31 06:20:35;;;;;;;;;;;9.40;99.90;;;;;;5090900;28;2297;-70
2023/03/31 06:23:01;;;;;;;;;;;9.40;99.90;;;;;;5109873;28;1127;-70
2023/03/31 06:25:26;;;;;;;;;;;9.40;99.90;;;;;;5109993;28;1120;-70
2023/03/31 06:27:52;;;;;;;;;;;9.40;99.90;;;;;;5117924;27;1228;-70
2023/03/31 06:30:18;;;;;;;;;;;9.40;99.90;;;;;;5127880;27;1206;-70
2023/03/31 06:32:44;;;;;;;;;;;9.40;99.90;;;;;;5109232;28;1073;-70
2023/03/31 06:35:09;;;;;;;;;;;9.40;99.90;;;;;;5109268;28;1124;-70
2023/03/31 06:37:35;;;;;;;;;;;9.40;99.90;;;;;;5109663;28;1097;-70
2023/03/31 06:40:01;;;;;;;;;;;9.50;99.90;;;;;;5108772;28;1148;-70
2023/03/31 06:42:27;;;;;;;;;;;9.50;99.90;;;;;;5109619;28;1977;-70
2023/03/31 06:44:54;;;;;;;;;;;9.60;99.90;;;;;;5091805;28;1573;-70
2023/03/31 06:47:20;;;;;;;;;;;9.60;99.90;;;;;;5109522;28;1131;-70
2023/03/31 06:49:45;;;;;;;;;;;9.60;99.90;;;;;;5109243;28;1124;-70
2023/03/31 06:52:11;;;;;;;;;;;9.60;99.90;;;;;;5109331;28;1163;-70
2023/03/31 06:54:37;;;;;;;;;;;9.60;99.90;;;;;;5109593;28;1096;-70
2023/03/31 06:57:03;;;;;;;;;;;9.70;99.90;;;;;;5109600;28;1331;-70
2023/03/31 06:59:28;;;;;;;;;;;9.70;99.90;;;;;;5108661;28;1153;-70
2023/03/31 07:01:54;;;;;;;;;;;9.70;99.90;;;;;;5109160;28;1972;-70
2023/03/31 07:04:20;;;;;;;;;;;9.70;99.90;;;;;;5109567;28;1272;-70
2023/03/31 07:06:46;;;;;;;;;;;9.80;99.90;;;;;;5109084;27;1290;-70
2023/03/31 07:09:11;;;;;;;;;;;9.80;99.90;;;;;;5122417;27;1096;-70
2023/03/31 07:11:37;;;;;;;;;;;9.80;99.90;;;;;;5125941;27;1318;-70
2023/03/31 07:14:03;;;;;;;;;;;9.80;99.90;;;;;;5109300;28;1144;-70
2023/03/31 07:16:30;;;;;;;;;;;9.90;99.90;;;;;;5108749;28;1084;-70
2023/03/31 07:18:56;;;;;;;;;;;9.90;99.90;;;;;;5109570;28;1088;-70
2023/03/31 07:21:22;;;;;;;;;;;9.90;99.90;;;;;;5108611;28;1989;-70
2023/03/31 07:23:48;;;;;;;;;;;9.90;99.90;;;;;;5090604;28;1180;-70
2023/03/31 07:26:13;;;;;;;;;;;9.90;99.90;;;;;;5108486;28;1288;-70
2023/03/31 07:28:39;;;;;;;;;;;9.90;99.90;;;;;;5124957;28;1083;-70
2023/03/31 07:31:10;;;;;;;;;;;9.90;99.90;;;;;;5109011;28;1176;-70
2023/03/31 07:33:35;;;;;;;;;;;10.00;99.90;;;;;;5108838;28;1140;-70
2023/03/31 07:36:03;;;;;;;;;;;10.00;99.90;;;;;;5108860;28;1159;-70
2023/03/31 07:38:29;;;;;;;;;;;10.00;99.90;;;;;;5108787;28;1132;-70
2023/03/31 07:40:55;;;;;;;;;;;10.00;99.90;;;;;;5091229;28;1973;-70
2023/03/31 07:43:20;;;;;;;;;;;10.00;99.90;;;;;;5119213;27;1983;-70
2023/03/31 07:45:46;;;;;;;;;;;10.00;99.90;;;;;;5106845;27;1081;-70
2023/03/31 07:48:12;;;;;;;;;;;10.10;99.90;;;;;;5149837;27;1099;-70
2023/03/31 07:50:37;;;;;;;;;;;10.00;99.90;;;;;;5131306;27;1201;-70
2023/03/31 07:53:08;;;;;;;;;;;10.10;99.90;;;;;;5129638;27;1580;-70
2023/03/31 07:55:34;;;;;;;;;;;10.10;99.90;;;;;;5113138;28;1152;-70
2023/03/31 07:58:00;;;;;;;;;;;10.10;99.90;;;;;;5112529;28;1088;-70
2023/03/31 08:00:26;;;;;;;;;;;10.10;99.90;;;;;;5112443;28;1161;-70
2023/03/31 08:02:51;;;;;;;;;;;10.10;99.90;;;;;;5094255;28;1915;-70
2023/03/31 08:05:18;;;;;;;;;;;10.10;99.90;;;;;;5112481;28;1378;-73
2023/03/31 08:07:45;;;;;;;;;;;10.20;99.90;;;;;;5113134;28;1124;-73
2023/03/31 08:10:14;;;;;;;;;;;10.20;99.90;;;;;;5086919;28;1126;-73
2023/03/31 08:12:40;;;;;;;;;;;10.20;99.90;;;;;;5111810;28;1127;-72
2023/03/31 08:15:06;;;;;;;;;;;10.20;99.90;;;;;;5094575;28;1708;-73
2023/03/31 08:17:31;;;;;;;;;;;10.20;99.90;;;;;;5094461;27;1187;-72
2023/03/31 08:19:57;;;;;;;;;;;10.20;99.90;;;;;;5106299;28;1138;-72
2023/03/31 08:22:23;;;;;;;;;;;10.10;99.90;;;;;;5115035;27;1979;-72
2023/03/31 08:24:49;;;;;;;;;;;10.10;99.90;;;;;;5114660;27;1186;-73
2023/03/31 08:27:15;;;;;;;;;;;10.10;99.90;;;;;;5120146;27;1291;-73
2023/03/31 08:29:41;;;;;;;;;;;10.10;99.90;;;;;;5112354;28;1171;-72
2023/03/31 08:32:07;;;;;;;;;;;10.10;99.90;;;;;;5111903;27;1278;-73
2023/03/31 08:34:32;;;;;;;;;;;10.10;99.90;;;;;;5113973;27;1218;-72
2023/03/31 08:36:58;;;;;;;;;;;10.10;99.90;;;;;;5112056;28;1117;-72
2023/03/31 08:39:24;;;;;;;;;;;10.10;99.90;;;;;;5119957;27;1230;-73
2023/03/31 08:41:59;;;;;;;;;;;10.10;99.90;;;;;;5114019;27;1917;-73
2023/03/31 08:44:36;;;;;;;;;;;10.10;99.90;;;;;;5110782;27;1587;-73
2023/03/31 08:47:04;;;;;;;;;;;10.10;99.90;;;;;;5108504;28;1077;-73
2023/03/31 08:49:37;;;;;;;;;;;10.10;99.90;;;;;;5098523;28;1270;-73
2023/03/31 08:52:03;;;;;;;;;;;10.10;99.90;;;;;;5112770;27;1310;-73
2023/03/31 08:54:32;;;;;;;;;;;10.10;99.90;;;;;;5108196;28;1271;-73
2023/03/31 08:56:59;;;;;;;;;;;10.10;99.90;;;;;;5093399;28;1116;-73
2023/03/31 08:59:28;;;;;;;;;;;10.00;99.90;;;;;;5111414;28;1124;-73
2023/03/31 09:02:01;;;;;;;;;;;10.10;99.90;;;;;;5134348;27;1925;-73
2023/03/31 09:04:27;;;;;;;;;;;10.00;99.90;;;;;;5102491;28;1226;-73
2023/03/31 09:06:54;;;;;;;;;;;9.90;99.90;;;;;;5114880;27;1286;-73
2023/03/31 09:09:30;;;;;;;;;;;9.90;99.90;;;;;;5110880;28;1249;-73
2023/03/31 09:11:57;;;;;;;;;;;9.90;99.90;;;;;;5131867;27;1242;-73
2023/03/31 09:14:24;;;;;;;;;;;9.90;99.90;;;;;;5102471;27;1247;-73
2023/03/31 09:16:59;;;;;;;;;;;9.90;99.90;;;;;;5110955;28;1246;-73
2023/03/31 09:19:44;;;;;;;;;;;10.00;99.90;;;;;;5132517;27;2067;-73
2023/03/31 09:22:13;;;;;;;;;;;10.00;99.90;;;;;;5108144;28;1913;-73
2023/03/31 09:24:45;;;;;;;;;;;10.10;99.90;;;;;;5101784;28;1560;-73
2023/03/31 09:27:11;;;;;;;;;;;10.20;99.90;;;;;;5108751;27;1246;-73
2023/03/31 09:29:36;;;;;;;;;;;10.20;99.90;;;;;;5103300;28;1215;-73
2023/03/31 09:32:12;;;;;;;;;;;10.30;99.90;;;;;;5136262;27;1214;-73
2023/03/31 09:34:38;;;;;;;;;;;10.20;99.90;;;;;;5117349;27;1289;-73
2023/03/31 09:37:04;;;;;;;;;;;10.30;99.90;;;;;;5117969;27;1145;-73
2023/03/31 09:39:29;;;;;;;;;;;10.30;99.90;;;;;;5093138;28;1758;-73
2023/03/31 09:41:55;;;;;;;;;;;10.30;99.90;;;;;;5092546;28;1918;-73
2023/03/31 09:44:24;;;;;;;;;;;10.40;99.90;;;;;;5110347;28;1301;-73
2023/03/31 09:46:50;;;;;;;;;;;10.40;99.90;;;;;;5113266;27;1195;-73
2023/03/31 09:49:19;;;;;;;;;;;10.40;99.90;;;;;;5100196;28;1388;-73
2023/03/31 09:51:47;;;;;;;;;;;10.40;99.90;;;;;;5108540;27;1263;-73
2023/03/31 09:54:30;;;;;;;;;;;10.40;99.90;;;;;;5112213;27;1242;-73
2023/03/31 09:56:56;;;;;;;;;;;10.40;99.90;;;;;;5131915;27;1239;-73
2023/03/31 09:59:28;;;;;;;;;;;10.30;99.90;;;;;;5113055;27;1317;-73
2023/03/31 10:01:57;;;;;;;;;;;10.40;99.90;;;;;;5129940;27;1933;-73
2023/03/31 10:04:24;;;;;;;;;;;10.40;99.90;;;;;;5119462;27;1243;-73
2023/03/31 10:06:52;;;;;;;;;;;10.40;99.90;;;;;;5091874;28;1367;-73
2023/03/31 10:09:20;;;;;;;;;;;10.40;99.90;;;;;;5109888;28;1239;-73
2023/03/31 10:12:01;;;;;;;;;;;10.40;99.90;;;;;;5109410;28;1309;-73
2023/03/31 10:14:39;;;;;;;;;;;10.50;99.90;;;;;;5098196;27;1233;-73
2023/03/31 10:17:06;;;;;;;;;;;10.50;99.90;;;;;;5108022;28;1220;-73
2023/03/31 10:19:33;;;;;;;;;;;10.50;99.90;;;;;;5109613;28;1302;-73
2023/03/31 10:22:00;;;;;;;;;;;10.50;99.90;;;;;;5129199;27;1971;-73
2023/03/31 10:24:36;;;;;;;;;;;10.50;99.90;;;;;;5104458;28;1207;-73
2023/03/31 10:27:04;;;;;;;;;;;10.50;99.90;;;;;;5109754;28;1241;-73
2023/03/31 10:29:31;;;;;;;;;;;10.40;99.90;;;;;;5130220;27;1146;-73
2023/03/31 10:32:02;;;;;;;;;;;10.50;99.90;;;;;;5131669;27;1902;-73
2023/03/31 10:34:28;;;;;;;;;;;11.40;99.90;;;;;;5110234;28;1060;-73
2023/03/31 10:36:55;;;;;;;;;;;10.50;99.90;;;;;;5109826;28;1092;-73
2023/03/31 10:39:24;;;;;;;;;;;10.50;99.90;;;;;;5108569;28;1025;-73
2023/03/31 10:41:51;;;;;;;;;;;10.50;99.90;;;;;;5091957;28;1902;-73
2023/03/31 10:44:32;;;;;;;;;;;10.60;99.90;;;;;;5091419;28;1593;-73
2023/03/31 10:47:03;;;;;;;;;;;10.70;99.90;;;;;;5124874;27;1139;-73
2023/03/31 10:49:29;;;;;;;;;;;10.80;99.90;;;;;;5097076;28;1196;-73
2023/03/31 10:51:56;;;;;;;;;;;10.80;99.90;;;;;;5109127;28;1105;-72
2023/03/31 10:54:22;;;;;;;;;;;10.80;99.90;;;;;;5108986;28;1143;-72
2023/03/31 10:56:51;;;;;;;;;;;10.80;99.90;;;;;;5109265;28;1146;-72
2023/03/31 10:59:26;;;;;;;;;;;10.70;99.90;;;;;;5076955;28;1223;-72
2023/03/31 11:02:00;;;;;;;;;;;10.60;99.90;;;;;;5109110;27;1909;-72
2023/03/31 11:04:32;;;;;;;;;;;10.50;99.90;;;;;;5100154;27;1267;-72
2023/03/31 11:06:58;;;;;;;;;;;10.40;99.90;;;;;;5098755;28;1314;-72
2023/03/31 11:09:32;;;;;;;;;;;10.40;99.90;;;;;;5109151;28;1211;-72
2023/03/31 11:12:15;;;;;;;;;;;10.50;99.90;;;;;;5110251;27;1274;-72
2023/03/31 11:14:48;;;;;;;;;;;10.50;99.90;;;;;;5095322;28;1100;-72
2023/03/31 11:17:20;;;;;;;;;;;10.70;99.90;;;;;;5110713;27;1239;-72
2023/03/31 11:19:52;;;;;;;;;;;10.70;99.90;;;;;;5077607;28;1275;-72
2023/03/31 11:22:24;;;;;;;;;;;10.80;99.90;;;;;;5110900;28;1913;-72
2023/03/31 11:25:04;;;;;;;;;;;10.90;99.90;;;;;;5107882;28;1207;-72
2023/03/31 11:27:30;;;;;;;;;;;11.00;99.90;;;;;;5109385;28;1318;-72
2023/03/31 11:30:00;;;;;;;;;;;11.00;99.90;;;;;;5090641;28;1093;-72
2023/03/31 11:32:36;;;;;;;;;;;11.10;99.90;;;;;;5108093;28;1028;-72
2023/03/31 11:35:06;;;;;;;;;;;11.10;99.90;;;;;;5102317;28;1952;-72
2023/03/31 11:37:40;;;;;;;;;;;11.10;99.90;;;;;;5124133;28;1918;-72
2023/03/31 11:40:21;;;;;;;;;;;11.20;99.90;;;;;;5108400;28;2178;-71
2023/03/31 11:42:51;;;;;;;;;;;11.30;99.90;;;;;;5089290;28;1910;-72
2023/03/31 11:45:18;;;;;;;;;;;11.50;99.90;;;;;;5109282;28;1084;-72
2023/03/31 11:47:45;;;;;;;;;;;11.60;99.90;;;;;;5098357;28;1228;-72
2023/03/31 11:50:14;;;;;;;;;;;11.80;99.90;;;;;;5109686;27;1281;-72
2023/03/31 11:52:42;;;;;;;;;;;11.90;99.90;;;;;;5111452;28;1817;-72
2023/03/31 11:55:17;;;;;;;;;;;12.00;99.90;;;;;;5108369;27;1115;-72
2023/03/31 11:57:42;;;;;;;;;;;12.10;99.90;;;;;;5107515;28;1247;-72
2023/03/31 12:00:12;;;;;;;;;;;11.90;99.90;;;;;;5097649;28;1194;-72
2023/03/31 12:02:45;;;;;;;;;;;11.90;99.90;;;;;;5097895;28;1909;-72
2023/03/31 12:05:12;;;;;;;;;;;12.00;99.90;;;;;;5114210;28;1330;-72
2023/03/31 12:07:47;;;;;;;;;;;12.20;99.90;;;;;;5069085;28;1105;-72
2023/03/31 12:10:13;;;;;;;;;;;12.30;99.90;;;;;;5095333;28;1117;-72
2023/03/31 12:12:42;;;;;;;;;;;12.30;99.90;;;;;;5108490;28;1108;-72
2023/03/31 12:15:17;;;;;;;;;;;12.40;99.90;;;;;;5108886;28;1108;-73
2023/03/31 12:17:46;;;;;;;;;;;12.50;99.90;;;;;;5107779;28;1085;-72
2023/03/31 12:20:16;;;;;;;;;;;12.60;99.90;;;;;;5108991;28;1205;-72
2023/03/31 12:22:43;;;;;;;;;;;12.60;99.90;;;;;;5108588;28;1967;-72
2023/03/31 12:25:12;;;;;;;;;;;12.40;99.90;;;;;;5089733;28;1093;-72
2023/03/31 12:27:40;;;;;;;;;;;12.20;99.90;;;;;;5090375;28;1669;-72
2023/03/31 12:30:09;;;;;;;;;;;12.00;99.90;;;;;;5092628;28;1156;-72
2023/03/31 12:32:37;;;;;;;;;;;11.90;99.90;;;;;;5111840;28;1008;-72
2023/03/31 12:35:06;;;;;;;;;;;11.80;99.90;;;;;;5111755;28;1191;-72
2023/03/31 12:37:46;;;;;;;;;;;11.70;99.90;;;;;;5113789;27;1176;-72
2023/03/31 12:40:12;;;;;;;;;;;11.60;99.90;;;;;;5093273;28;1168;-71
2023/03/31 12:42:45;;;;;;;;;;;11.70;99.90;;;;;;5111817;28;1966;-72
2023/03/31 12:45:17;;;;;;;;;;;11.80;99.90;;;;;;5106706;28;1160;-72
2023/03/31 12:47:52;;;;;;;;;;;11.90;99.90;;;;;;5111843;28;1081;-72
2023/03/31 12:50:27;;;;;;;;;;;12.00;99.90;;;;;;5112134;28;1112;-72
2023/03/31 12:52:59;;;;;;;;;;;12.00;99.90;;;;;;5110925;28;1138;-72
2023/03/31 12:55:32;;;;;;;;;;;12.20;99.90;;;;;;5112112;28;1132;-72
2023/03/31 12:58:25;;;;;;;;;;;12.40;99.90;;;;;;5111973;27;1195;-72
2023/03/31 13:01:09;;;;;;;;;;;12.70;99.90;;;;;;5111083;27;1979;-72
2023/03/31 13:03:34;;;;;;;;;;;12.90;99.90;;;;;;5110952;28;1113;-72
2023/03/31 13:06:01;;;;;;;;;;;12.90;99.90;;;;;;5127669;27;1389;-72
2023/03/31 13:08:45;;;;;;;;;;;12.80;99.90;;;;;;5111081;28;1108;-72
2023/03/31 13:11:11;;;;;;;;;;;12.70;99.90;;;;;;5107482;28;1268;-72
2023/03/31 13:13:40;;;;;;;;;;;12.70;99.90;;;;;;5111551;28;1619;-72
2023/03/31 13:16:06;;;;;;;;;;;12.60;99.90;;;;;;5112679;27;1163;-72
2023/03/31 13:18:32;;;;;;;;;;;12.60;99.90;;;;;;5121189;27;1121;-72
2023/03/31 13:20:59;;;;;;;;;;;12.60;99.90;;;;;;5088745;28;1969;-72
2023/03/31 13:23:27;;;;;;;;;;;12.70;99.90;;;;;;5111393;28;1132;-72
2023/03/31 13:25:53;;;;;;;;;;;12.80;99.90;;;;;;5111343;28;1273;-72
2023/03/31 13:28:20;;;;;;;;;;;12.90;99.90;;;;;;5102777;28;1920;-72
2023/03/31 13:30:52;;;;;;;;;;;13.10;99.90;;;;;;5107431;28;1849;-72
2023/03/31 13:33:18;;;;;;;;;;;13.30;99.90;;;;;;5092696;28;2151;-72
2023/03/31 13:35:46;;;;;;;;;;;13.50;99.90;;;;;;5109196;28;1850;-72
2023/03/31 13:38:25;;;;;;;;;;;13.60;99.90;;;;;;5101785;28;1117;-72
2023/03/31 13:40:55;;;;;;;;;;;13.60;99.90;;;;;;5110102;28;1973;-72
2023/03/31 13:43:33;;;;;;;;;;;13.60;99.90;;;;;;5110685;28;1378;-72
2023/03/31 13:46:08;;;;;;;;;;;13.70;99.90;;;;;;5110109;28;2130;-72
2023/03/31 13:48:35;;;;;;;;;;;13.80;99.90;;;;;;5111135;28;1152;-72
2023/03/31 13:51:13;;;;;;;;;;;13.70;99.90;;;;;;5110492;28;1088;-73
2023/03/31 13:53:58;;;;;;;;;;;13.70;99.90;;;;;;5091433;28;1113;-72
2023/03/31 13:56:25;;;;;;;;;;;13.50;99.90;;;;;;5110338;28;1112;-72
2023/03/31 13:58:58;;;;;;;;;;;13.50;99.90;;;;;;5092113;28;1002;-72
2023/03/31 14:01:35;;;;;;;;;;;13.40;99.90;;;;;;5109928;28;1901;-72
2023/03/31 14:04:13;;;;;;;;;;;13.40;99.90;;;;;;5096520;28;1279;-80
2023/03/31 14:06:45;;;;;;;;;;;13.20;99.90;;;;;;5108449;28;1097;-73
2023/03/31 14:09:15;;;;;;;;;;;13.20;99.90;;;;;;5099785;28;1243;-72
2023/03/31 14:11:41;;;;;;;;;;;13.10;99.90;;;;;;5132456;27;1261;-73
2023/03/31 14:14:13;;;;;;;;;;;13.20;99.90;;;;;;5110425;27;1301;-73
2023/03/31 14:16:40;;;;;;;;;;;13.10;99.90;;;;;;5107449;28;1160;-73
2023/03/31 14:19:16;;;;;;;;;;;13.10;99.90;;;;;;5111236;27;1269;-73
2023/03/31 14:21:47;;;;;;;;;;;12.80;99.90;;;;;;5108473;27;1918;-73
2023/03/31 14:24:19;;;;;;;;;;;12.40;99.90;;;;;;5112127;27;1231;-72
2023/03/31 14:26:52;;;;;;;;;;;12.20;99.90;;;;;;5108005;28;1352;-72
2023/03/31 14:29:23;;;;;;;;;;;12.00;99.90;;;;;;5108835;28;1356;-72
2023/03/31 14:31:58;;;;;;;;;;;11.90;99.90;;;;;;5111239;27;1342;-72
2023/03/31 14:34:35;;;;;;;;;;;11.80;99.90;;;;;;5111103;27;1109;-72
2023/03/31 14:37:03;;;;;;;;;;;11.70;99.90;;;;;;5107868;27;1386;-72
2023/03/31 14:39:31;;;;;;;;;;;11.60;99.90;;;;;;5078058;28;1262;-71
2023/03/31 14:41:58;;;;;;;;;;;11.00;99.90;;;;;;5110514;27;1917;-71
2023/03/31 14:44:24;;;;;;;;;;;10.00;99.90;;;;;;5099713;28;1282;-71
2023/03/31 14:46:50;;;;;;;;;;;9.50;99.90;;;;;;5111435;27;1183;-70